Time;durP1;ratioP1;P1;durP2;ratioP2;P2;SDS_P1;SDS_P2;PMS_P1;PMS_P2;Temp;Humidity;BMP_temperature;BMP_pressure;BME280_temperature;BME280_humidity;BME280_pressure;Samples;Min_cycle;Max_cycle;Signal;HPM_P1;HPM_P2
2023/01/16 00:02:17;;;;;;;0.85;0.60;;;;;;;2.95;100.00;96920.34;5062411;28;20052;-60
2023/01/16 00:04:44;;;;;;;0.50;0.50;;;;;;;3.57;100.00;97015.69;5064091;28;20503;-60
2023/01/16 00:07:11;;;;;;;0.40;0.40;;;;;;;3.64;100.00;97022.25;5062271;28;20118;-60
2023/01/16 00:09:37;;;;;;;0.95;0.95;;;;;;;3.34;100.00;96963.06;5061843;28;20125;-59
2023/01/16 00:12:04;;;;;;;0.50;0.50;;;;;;;3.43;100.00;96960.31;5043889;28;20049;-60
2023/01/16 00:14:31;;;;;;;0.40;0.40;;;;;;;3.82;100.00;97010.13;5043638;28;20122;-56
2023/01/16 00:16:58;;;;;;;0.50;0.50;;;;;;;3.77;100.00;96991.13;5058743;28;20133;-60
2023/01/16 00:19:25;;;;;;;0.40;0.40;;;;;;;3.94;100.00;97009.44;5044179;28;20474;-58
2023/01/16 00:21:51;;;;;;;0.50;0.50;;;;;;;3.91;100.00;97010.91;5043827;28;20492;-61
2023/01/16 00:24:18;;;;;;;0.40;0.40;;;;;;;3.55;100.00;96983.16;5044016;28;20135;-59
2023/01/16 00:26:45;;;;;;;0.43;0.43;;;;;;;3.88;100.00;96978.69;5043547;28;20091;-60
2023/01/16 00:29:11;;;;;;;0.50;0.50;;;;;;;4.07;100.00;97003.75;5043521;28;20087;-60
2023/01/16 00:31:38;;;;;;;1.30;0.80;;;;;;;4.01;100.00;97005.06;5043645;28;20579;-55
2023/01/16 00:34:04;;;;;;;9.98;9.43;;;;;;;4.02;100.00;97001.19;5043698;28;20063;-56
2023/01/16 00:36:31;;;;;;;10.82;10.13;;;;;;;4.04;100.00;96993.44;5042513;28;20518;-55
2023/01/16 00:38:58;;;;;;;1.20;1.20;;;;;;;4.06;100.00;97001.34;5048565;28;20049;-56
2023/01/16 00:41:24;;;;;;;2.20;1.45;;;;;;;3.91;100.00;96983.50;5063340;28;20094;-61
2023/01/16 00:43:52;;;;;;;1.52;1.40;;;;;;;3.54;100.00;96956.88;5063516;28;20512;-55
2023/01/16 00:46:18;;;;;;;0.60;0.60;;;;;;;3.73;100.00;96986.66;5065018;28;20044;-55
2023/01/16 00:48:45;;;;;;;0.50;0.50;;;;;;;3.55;100.00;96964.00;5066337;28;20052;-56
2023/01/16 00:51:11;;;;;;;0.77;0.77;;;;;;;3.44;100.00;96989.28;5066548;28;20104;-60
2023/01/16 00:53:38;;;;;;;0.47;0.47;;;;;;;2.85;100.00;96884.31;5065809;28;20040;-56
2023/01/16 00:56:06;;;;;;;5.35;1.95;;;;;;;3.18;100.00;96961.19;5067259;28;20048;-56
2023/01/16 00:58:32;;;;;;;1.33;1.27;;;;;;;3.17;100.00;96973.25;5066035;28;20048;-56
2023/01/16 01:00:59;;;;;;;0.55;0.55;;;;;;;3.15;100.00;96981.00;5066029;28;20984;-59
2023/01/16 01:03:28;;;;;;;1.08;1.08;;;;;;;3.11;100.00;96980.84;5049887;28;20052;-58
2023/01/16 01:05:54;;;;;;;1.50;1.40;;;;;;;3.16;100.00;96977.94;5047836;28;20053;-55
2023/01/16 01:08:21;;;;;;;0.88;0.88;;;;;;;3.07;100.00;96968.91;5045885;28;20064;-56
2023/01/16 01:10:47;;;;;;;0.40;0.40;;;;;;;2.77;100.00;96975.38;5065629;28;20545;-58
2023/01/16 01:13:14;;;;;;;0.40;0.40;;;;;;;3.31;100.00;96974.66;5066612;28;20048;-56
2023/01/16 01:15:41;;;;;;;1.25;1.25;;;;;;;3.28;100.00;96950.69;5066911;28;20048;-60
2023/01/16 01:18:07;;;;;;;0.40;0.40;;;;;;;3.46;100.00;96971.44;5065588;28;20098;-56
2023/01/16 01:20:34;;;;;;;0.68;0.68;;;;;;;3.42;100.00;96951.28;5066438;28;20056;-60
2023/01/16 01:23:01;;;;;;;0.60;0.60;;;;;;;3.48;100.00;96952.72;5067521;28;20065;-56
2023/01/16 01:25:27;;;;;;;0.57;0.57;;;;;;;3.51;100.00;96954.81;5064964;28;20121;-60
2023/01/16 01:27:54;;;;;;;0.50;0.50;;;;;;;3.47;100.00;96940.19;5067030;28;20080;-60
2023/01/16 01:30:20;;;;;;;0.40;0.40;;;;;;;3.01;100.00;96861.59;5066683;28;20135;-57
2023/01/16 01:32:47;;;;;;;0.85;0.85;;;;;;;3.60;100.00;96960.25;5067040;28;20125;-61
2023/01/16 01:35:14;;;;;;;0.40;0.40;;;;;;;3.68;100.00;96952.03;5064360;28;20080;-56
2023/01/16 01:37:40;;;;;;;0.40;0.40;;;;;;;3.73;100.00;96942.81;5047640;28;20130;-60
2023/01/16 01:40:08;;;;;;;0.40;0.40;;;;;;;3.70;100.00;96938.78;5061854;28;20114;-60
2023/01/16 01:42:42;;;;;;;0.75;0.75;;;;;;;3.68;100.00;96935.59;5046699;28;20052;-56
2023/01/16 01:45:29;;;;;;;0.40;0.40;;;;;;;3.73;100.00;96915.44;5046331;28;20535;-61
2023/01/16 01:48:07;;;;;;;0.60;0.60;;;;;;;3.98;100.00;96942.69;5046384;28;20135;-57
2023/01/16 01:50:44;;;;;;;1.25;1.25;;;;;;;3.42;100.00;96849.19;5051570;28;20494;-56
2023/01/16 01:53:35;;;;;;;0.40;0.40;;;;;;;4.04;100.00;96944.13;5065369;28;20229;-56
2023/01/16 01:56:13;;;;;;;0.50;0.50;;;;;;;3.70;100.00;96873.06;5065851;28;20056;-60
2023/01/16 01:58:41;;;;;;;0.40;0.40;;;;;;;4.14;100.00;96942.94;5066431;28;20148;-58
2023/01/16 02:01:08;;;;;;;0.40;0.40;;;;;;;4.05;100.00;96929.28;5046013;28;20096;-60
2023/01/16 02:03:45;;;;;;;0.70;0.70;;;;;;;4.13;100.00;96941.31;5046275;28;20411;-60
2023/01/16 02:06:23;;;;;;;0.40;0.40;;;;;;;4.15;100.00;96917.94;5046657;28;20067;-60
2023/01/16 02:08:54;;;;;;;0.73;0.73;;;;;;;4.09;100.00;96924.75;5057658;28;20061;-56
2023/01/16 02:11:32;;;;;;;1.70;1.60;;;;;;;4.09;100.00;96913.78;5066101;28;20571;-61
2023/01/16 02:14:05;;;;;;;0.57;0.57;;;;;;;4.01;100.00;96917.38;5066113;28;20098;-60
2023/01/16 02:19:58;;;;;;;0.50;0.50;;;;;;;4.18;100.00;96916.44;5086168;28;20514;-60
2023/01/16 02:22:51;;;;;;;0.50;0.50;;;;;;;4.29;100.00;96913.00;5061283;28;20495;-57
2023/01/16 02:25:26;;;;;;;0.43;0.43;;;;;;;4.35;100.00;96921.81;5065056;28;20166;-61
2023/01/16 02:27:53;;;;;;;1.05;1.05;;;;;;;4.47;100.00;96919.94;5064569;28;20725;-55
2023/01/16 02:30:48;;;;;;;0.43;0.43;;;;;;;4.40;100.00;96914.22;5064695;28;20060;-57
2023/01/16 02:33:34;;;;;;;0.45;0.45;;;;;;;4.29;100.00;96918.47;5064339;28;20056;-56
2023/01/16 02:36:07;;;;;;;1.60;1.50;;;;;;;4.36;100.00;96913.25;5053893;28;20126;-57
2023/01/16 02:38:54;;;;;;;3.05;2.65;;;;;;;4.33;100.00;96924.09;5046118;28;20456;-56
2023/01/16 02:41:41;;;;;;;0.50;0.50;;;;;;;4.34;100.00;96920.22;5045478;28;20170;-60
2023/01/16 02:44:28;;;;;;;0.50;0.50;;;;;;;4.38;100.00;96938.41;5051034;28;20056;-56
2023/01/16 02:47:17;;;;;;;0.50;0.50;;;;;;;4.41;100.00;96921.28;5062987;28;20071;-61
2023/01/16 02:49:57;;;;;;;2.35;2.25;;;;;;;4.38;100.00;96911.00;5065611;28;20056;-57
2023/01/16 02:52:35;;;;;;;1.10;1.10;;;;;;;4.15;100.00;96885.03;5065068;28;20080;-60
2023/01/16 02:55:10;;;;;;;0.50;0.50;;;;;;;4.28;100.00;96899.63;5062614;28;20091;-56
2023/01/16 02:57:43;;;;;;;0.40;0.40;;;;;;;4.35;100.00;96899.88;5048036;28;20094;-58
2023/01/16 03:00:15;;;;;;;0.55;0.55;;;;;;;4.37;100.00;96903.91;5045014;28;20052;-56
2023/01/16 03:02:43;;;;;;;1.50;1.50;;;;;;;4.36;100.00;96909.72;5045018;28;20085;-61
2023/01/16 03:05:10;;;;;;;0.50;0.50;;;;;;;4.48;100.00;96905.13;5045122;28;20080;-61
2023/01/16 03:07:47;;;;;;;0.40;0.40;;;;;;;4.36;100.00;96891.31;5061766;28;20083;-61
2023/01/16 03:10:40;;;;;;;2.15;0.90;;;;;;;4.41;100.00;96895.81;5064522;28;20052;-60
2023/01/16 03:13:33;;;;;;;0.50;0.50;;;;;;;4.43;100.00;96897.09;5055550;28;20048;-61
2023/01/16 03:16:31;;;;;;;0.50;0.50;;;;;;;4.47;100.00;96889.78;5064043;28;20091;-60
2023/01/16 03:19:12;;;;;;;0.50;0.50;;;;;;;4.46;100.00;96896.41;5056857;28;20084;-61
2023/01/16 03:21:47;;;;;;;0.88;0.85;;;;;;;4.46;100.00;96882.69;5044372;28;20092;-56
2023/01/16 03:24:20;;;;;;;0.50;0.50;;;;;;;4.42;100.00;96889.19;5043556;28;20049;-60
2023/01/16 03:26:51;;;;;;;0.80;0.80;;;;;;;4.32;100.00;96871.22;5046048;28;20136;-58
2023/01/16 03:29:39;;;;;;;2.25;2.15;;;;;;;4.06;100.00;96799.31;5062518;28;20135;-56
2023/01/16 03:32:34;;;;;;;1.50;1.40;;;;;;;4.52;100.00;96878.63;5044572;28;20106;-60
2023/01/16 03:35:15;;;;;;;0.50;0.50;;;;;;;4.64;100.00;96875.94;5044895;28;20056;-60
2023/01/16 03:38:10;;;;;;;0.47;0.47;;;;;;;4.69;100.00;96872.97;5047566;28;20327;-60
2023/01/16 03:40:42;;;;;;;0.77;0.73;;;;;;;4.66;100.00;96895.59;5056691;28;20102;-56
2023/01/16 03:43:16;;;;;;;0.50;0.50;;;;;;;4.72;100.00;96873.44;5043619;28;20470;-57
2023/01/16 03:45:49;;;;;;;0.50;0.50;;;;;;;4.23;100.00;96798.41;5043594;28;20141;-60
2023/01/16 03:48:24;;;;;;;0.60;0.60;;;;;;;4.82;100.00;96860.09;5060649;28;20052;-60
2023/01/16 03:50:56;;;;;;;0.50;0.50;;;;;;;4.91;100.00;96860.03;5065057;28;20440;-60
2023/01/16 03:53:28;;;;;;;1.25;1.25;;;;;;;4.96;100.00;96860.63;5064294;28;20044;-60
2023/01/16 03:56:01;;;;;;;0.50;0.50;;;;;;;4.99;100.00;96853.66;5063694;28;20056;-56
2023/01/16 03:58:46;;;;;;;0.98;0.98;;;;;;;5.01;100.00;96856.88;5064411;28;20053;-60
2023/01/16 04:01:15;;;;;;;0.50;0.50;;;;;;;5.06;100.00;96851.16;5062981;28;20092;-59
2023/01/16 04:03:50;;;;;;;0.50;0.50;;;;;;;5.09;100.00;96843.03;5063218;28;20070;-60
2023/01/16 04:06:36;;;;;;;0.50;0.50;;;;;;;5.09;100.00;96848.53;5064272;28;20048;-60
2023/01/16 04:09:09;;;;;;;0.50;0.50;;;;;;;4.55;100.00;96757.25;5064393;28;20052;-55
2023/01/16 04:11:39;;;;;;;2.88;1.83;;;;;;;4.98;100.00;96825.41;5060033;28;20067;-60
2023/01/16 04:14:09;;;;;;;0.47;0.47;;;;;;;4.68;100.00;96782.00;5044034;28;20052;-60
2023/01/16 04:16:38;;;;;;;0.60;0.60;;;;;;;5.07;100.00;96817.88;5042431;28;20054;-60
2023/01/16 04:19:05;;;;;;;0.50;0.50;;;;;;;5.10;100.00;96827.38;5042599;28;20104;-59
2023/01/16 04:21:32;;;;;;;0.77;0.77;;;;;;;5.11;100.00;96828.97;5050892;28;20072;-56
2023/01/16 04:23:59;;;;;;;0.50;0.50;;;;;;;4.80;100.00;96768.31;5068038;28;20056;-61
2023/01/16 04:26:26;;;;;;;0.50;0.50;;;;;;;5.23;100.00;96826.25;5066158;28;20557;-56
2023/01/16 04:28:54;;;;;;;0.50;0.50;;;;;;;4.09;100.00;96656.19;5067676;28;20088;-56
2023/01/16 04:31:23;;;;;;;0.47;0.47;;;;;;;4.55;100.00;96745.53;5068108;28;20481;-56
2023/01/16 04:33:50;;;;;;;0.55;0.55;;;;;;;5.04;100.00;96828.75;5067830;28;20044;-60
2023/01/16 04:36:19;;;;;;;0.47;0.47;;;;;;;5.01;100.00;96818.44;5067885;28;20076;-61
2023/01/16 04:38:46;;;;;;;0.50;0.50;;;;;;;4.98;100.00;96808.16;5067843;28;20060;-59
2023/01/16 04:41:35;;;;;;;0.47;0.47;;;;;;;5.04;100.00;96823.25;5065711;28;20106;-56
2023/01/16 04:43:59;;;;;;;0.65;0.65;;;;;;;4.49;100.00;96742.16;5051150;28;20135;-61
2023/01/16 04:46:26;;;;;;;0.50;0.50;;;;;;;4.62;100.00;96773.97;5048000;28;20098;-60
2023/01/16 04:48:53;;;;;;;0.50;0.50;;;;;;;4.88;100.00;96803.09;5047466;28;20071;-60
2023/01/16 04:51:19;;;;;;;0.50;0.50;;;;;;;4.87;100.00;96817.94;5057113;28;20084;-55
2023/01/16 04:53:46;;;;;;;7.88;2.25;;;;;;;4.55;100.00;96772.94;5048163;28;20049;-60
2023/01/16 04:56:13;;;;;;;0.50;0.50;;;;;;;4.72;100.00;96793.88;5047319;28;20486;-60
2023/01/16 04:58:39;;;;;;;0.50;0.50;;;;;;;4.52;100.00;96795.56;5047505;28;20052;-55
2023/01/16 05:01:06;;;;;;;0.50;0.50;;;;;;;4.63;100.00;96778.31;5047445;28;20045;-57
2023/01/16 05:03:33;;;;;;;0.50;0.50;;;;;;;4.34;100.00;96734.59;5047129;28;20087;-55
2023/01/16 05:05:59;;;;;;;0.50;0.50;;;;;;;4.70;100.00;96791.50;5046998;28;20049;-60
2023/01/16 05:08:28;;;;;;;0.50;0.50;;;;;;;4.75;100.00;96795.94;5047369;28;20053;-56
2023/01/16 05:10:55;;;;;;;0.50;0.50;;;;;;;4.79;100.00;96794.16;5058929;28;20045;-56
2023/01/16 05:13:21;;;;;;;0.47;0.47;;;;;;;4.85;100.00;96793.59;5067158;28;20063;-55
2023/01/16 05:15:48;;;;;;;0.43;0.43;;;;;;;4.28;100.00;96692.06;5065525;28;20442;-59
2023/01/16 05:18:15;;;;;;;0.50;0.50;;;;;;;4.89;100.00;96788.22;5065936;28;20063;-57
2023/01/16 05:20:43;;;;;;;0.50;0.50;;;;;;;4.84;100.00;96791.97;5046754;28;20573;-60
2023/01/16 05:23:10;;;;;;;0.50;0.50;;;;;;;4.59;100.00;96744.50;5047320;28;20065;-56
2023/01/16 05:25:38;;;;;;;0.60;0.60;;;;;;;4.50;100.00;96724.56;5050595;28;20479;-60
2023/01/16 05:28:05;;;;;;;0.50;0.50;;;;;;;4.83;100.00;96784.91;5066953;28;20121;-55
2023/01/16 05:30:32;;;;;;;0.50;0.50;;;;;;;4.73;100.00;96762.59;5054807;28;20056;-60
2023/01/16 05:32:59;;;;;;;0.50;0.50;;;;;;;4.72;100.00;96761.78;5046289;28;20081;-60
2023/01/16 05:35:25;;;;;;;0.60;0.60;;;;;;;4.90;100.00;96782.38;5047211;28;20052;-61
2023/01/16 05:37:52;;;;;;;0.50;0.50;;;;;;;4.81;100.00;96769.91;5046823;28;20061;-60
2023/01/16 05:40:19;;;;;;;11.20;10.30;;;;;;;4.55;100.00;96718.88;5044926;28;20088;-60
2023/01/16 05:42:47;;;;;;;0.50;0.50;;;;;;;4.74;100.00;96742.25;5046803;28;20495;-61
2023/01/16 05:45:14;;;;;;;0.50;0.50;;;;;;;4.81;100.00;96756.19;5046444;28;20049;-56
2023/01/16 05:47:41;;;;;;;5.00;2.15;;;;;;;4.99;100.00;96763.09;5046745;28;20145;-56
2023/01/16 05:50:08;;;;;;;1.23;1.23;;;;;;;5.04;100.00;96773.84;5046391;28;20277;-61
2023/01/16 05:52:34;;;;;;;0.80;0.80;;;;;;;4.90;100.00;96762.38;5046354;28;20135;-61
2023/01/16 05:55:01;;;;;;;2.60;1.20;;;;;;;4.85;100.00;96749.69;5046107;28;20136;-57
2023/01/16 05:57:29;;;;;;;0.60;0.60;;;;;;;4.93;100.00;96783.66;5049950;28;20087;-57
2023/01/16 05:59:55;;;;;;;1.55;1.45;;;;;;;4.78;100.00;96781.56;5046071;28;20127;-61
2023/01/16 06:02:22;;;;;;;0.80;0.80;;;;;;;4.90;100.00;96795.31;5046244;28;20136;-62
2023/01/16 06:04:49;;;;;;;0.50;0.50;;;;;;;4.44;100.00;96720.44;5046223;28;20048;-59
2023/01/16 06:07:15;;;;;;;0.40;0.40;;;;;;;4.96;100.00;96783.78;5044577;28;20060;-57
2023/01/16 06:09:42;;;;;;;0.50;0.50;;;;;;;5.00;100.00;96770.16;5045722;28;20088;-61
2023/01/16 06:12:14;;;;;;;0.47;0.47;;;;;;;4.95;100.00;96787.66;5062671;28;20076;-62
2023/01/16 06:14:41;;;;;;;0.50;0.50;;;;;;;4.61;100.00;96772.41;5065879;28;20569;-58
2023/01/16 06:17:07;;;;;;;0.50;0.50;;;;;;;4.81;100.00;96764.41;5059359;28;20159;-61
2023/01/16 06:19:34;;;;;;;0.50;0.50;;;;;;;4.39;100.00;96697.94;5063667;28;20074;-61
2023/01/16 06:22:01;;;;;;;1.13;1.13;;;;;;;4.84;100.00;96774.72;5066051;28;20113;-56
2023/01/16 06:24:27;;;;;;;1.75;1.50;;;;;;;4.90;100.00;96770.63;5065475;28;20071;-61
2023/01/16 06:26:54;;;;;;;1.20;1.15;;;;;;;4.88;100.00;96781.13;5065496;28;20064;-56
2023/01/16 06:29:20;;;;;;;0.60;0.60;;;;;;;4.94;100.00;96775.09;5057311;28;20127;-57
2023/01/16 06:31:47;;;;;;;0.47;0.47;;;;;;;5.03;100.00;96777.72;5044585;28;20080;-56
2023/01/16 06:34:14;;;;;;;0.50;0.50;;;;;;;5.05;100.00;96780.94;5045451;28;20124;-57
2023/01/16 06:36:41;;;;;;;1.60;1.50;;;;;;;5.02;100.00;96770.63;5045696;28;20048;-56
2023/01/16 06:39:10;;;;;;;0.40;0.40;;;;;;;5.07;100.00;96775.91;5062265;28;20048;-61
2023/01/16 06:41:37;;;;;;;2.55;2.35;;;;;;;5.07;100.00;96767.66;5064000;28;20110;-61
2023/01/16 06:44:04;;;;;;;0.55;0.55;;;;;;;5.05;100.00;96769.94;5079877;28;20110;-61
2023/01/16 06:46:31;;;;;;;0.70;0.70;;;;;;;4.75;100.00;96732.84;5064800;28;20772;-57
2023/01/16 06:48:57;;;;;;;0.50;0.50;;;;;;;4.94;100.00;96730.38;5058169;28;20052;-58
2023/01/16 06:51:24;;;;;;;0.52;0.52;;;;;;;4.98;100.00;96773.25;5043273;28;20048;-56
2023/01/16 06:53:50;;;;;;;0.70;0.70;;;;;;;5.05;100.00;96765.28;5045378;28;20053;-59
2023/01/16 06:56:17;;;;;;;1.02;1.02;;;;;;;4.64;100.00;96716.84;5044936;28;20076;-56
2023/01/16 06:58:44;;;;;;;0.50;0.50;;;;;;;4.96;100.00;96753.59;5060003;28;20052;-61
2023/01/16 07:01:10;;;;;;;0.50;0.50;;;;;;;5.20;100.00;96766.53;5064581;28;20076;-56
2023/01/16 07:03:37;;;;;;;0.60;0.60;;;;;;;5.29;100.00;96764.47;5065199;28;20071;-61
2023/01/16 07:06:04;;;;;;;0.60;0.60;;;;;;;5.31;100.00;96773.97;5065171;28;20508;-60
2023/01/16 07:08:30;;;;;;;0.60;0.60;;;;;;;5.43;100.00;96771.22;5064388;28;20110;-61
2023/01/16 07:11:00;;;;;;;12.30;11.50;;;;;;;5.21;100.00;96740.69;5057975;28;20081;-59
2023/01/16 07:13:28;;;;;;;0.50;0.50;;;;;;;4.86;100.00;96662.69;5061040;28;20048;-60
2023/01/16 07:24:14;;;;;;;0.50;0.50;;;;;;;6.16;97.46;96738.94;5043765;28;20058;-60
2023/01/16 07:26:43;;;;;;;0.80;0.80;;;;;;;5.95;95.43;96741.06;5052273;28;20535;-59
2023/01/16 07:29:10;;;;;;;4.80;2.70;;;;;;;5.24;98.49;96731.75;5052749;28;20078;-60
2023/01/16 07:31:37;;;;;;;1.05;1.05;;;;;;;4.66;100.00;96731.00;5063588;28;20048;-57
2023/01/16 07:34:05;;;;;;;3.47;1.83;;;;;;;4.73;100.00;96724.97;5064278;28;20057;-56
2023/01/16 07:36:31;;;;;;;0.60;0.60;;;;;;;4.53;100.00;96715.69;5062714;28;20086;-61
2023/01/16 07:38:58;;;;;;;0.77;0.77;;;;;;;4.60;100.00;96688.50;5054424;28;20526;-60
2023/01/16 07:41:25;;;;;;;1.85;1.60;;;;;;;5.19;100.00;96704.53;5046238;28;20094;-57
2023/01/16 07:43:51;;;;;;;3.63;1.05;;;;;;;5.23;100.00;96676.03;5044179;28;20128;-59
2023/01/16 07:46:18;;;;;;;0.50;0.50;;;;;;;5.65;100.00;96701.25;5051186;28;20123;-58
2023/01/16 07:48:45;;;;;;;0.95;0.95;;;;;;;5.87;100.00;96703.53;5044783;28;20091;-57
2023/01/16 07:51:11;;;;;;;2.50;2.40;;;;;;;5.16;100.00;96672.28;5049828;28;20526;-56
2023/01/16 07:53:38;;;;;;;0.80;0.80;;;;;;;4.88;100.00;96674.13;5063462;28;20475;-57
2023/01/16 07:56:05;;;;;;;2.15;1.95;;;;;;;4.42;100.00;96702.75;5048616;28;20099;-60
2023/01/16 07:58:32;;;;;;;1.30;1.20;;;;;;;4.43;100.00;96655.78;5063977;28;20473;-57
2023/01/16 08:00:59;;;;;;;1.13;0.82;;;;;;;4.86;100.00;96709.31;5057932;28;20509;-53
2023/01/16 08:03:26;;;;;;;0.50;0.50;;;;;;;5.36;100.00;96699.59;5046671;28;20134;-58
2023/01/16 08:05:57;;;;;;;2.15;1.73;;;;;;;5.36;100.00;96701.56;5058308;28;20478;-60
2023/01/16 08:08:28;;;;;;;0.60;0.60;;;;;;;2.57;100.00;96347.28;5048932;28;20048;-55
2023/01/16 08:10:56;;;;;;;2.95;1.88;;;;;;;5.82;100.00;96690.84;5057533;28;20529;-57
2023/01/16 08:13:24;;;;;;;0.50;0.50;;;;;;;6.17;98.19;96691.03;5053176;28;20068;-61
2023/01/16 08:15:51;;;;;;;0.82;0.82;;;;;;;5.91;96.30;96693.44;5049453;28;20055;-54
2023/01/16 08:18:19;;;;;;;0.50;0.50;;;;;;;5.75;96.83;96640.34;5049325;28;20063;-58
2023/01/16 08:20:46;;;;;;;0.50;0.50;;;;;;;6.74;97.13;96691.41;5056389;28;20534;-56
2023/01/16 08:23:13;;;;;;;0.50;0.50;;;;;;;7.08;94.51;96687.16;5060559;28;20056;-56
2023/01/16 08:25:39;;;;;;;0.60;0.60;;;;;;;7.39;92.67;96693.44;5044503;28;20057;-56
2023/01/16 08:28:06;;;;;;;0.60;0.60;;;;;;;7.68;91.32;96687.41;5045670;28;20102;-58
2023/01/16 08:30:32;;;;;;;0.60;0.60;;;;;;;7.77;89.32;96665.16;5054975;28;20048;-58
2023/01/16 08:33:01;;;;;;;0.70;0.70;;;;;;;8.10;87.11;96667.41;5058743;28;20053;-58
2023/01/16 08:35:28;;;;;;;1.27;1.17;;;;;;;8.42;81.93;96657.81;5055625;28;20110;-58
2023/01/16 08:37:54;;;;;;;1.98;1.88;;;;;;;8.65;79.29;96667.72;5043323;28;20059;-58
2023/01/16 08:40:21;;;;;;;0.70;0.70;;;;;;;9.01;80.29;96691.22;5061122;28;20059;-57
2023/01/16 08:51:22;;;;;;;4.85;4.65;;;;;;;9.16;79.77;96688.34;5049345;28;20086;-61
2023/01/16 08:53:53;;;;;;;0.70;0.70;;;;;;;9.25;78.10;96690.06;5059757;28;20227;-60
2023/01/16 08:56:21;;;;;;;0.70;0.70;;;;;;;8.55;75.01;96587.50;5052636;28;20106;-60
2023/01/16 08:58:48;;;;;;;1.48;0.80;;;;;;;9.00;74.11;96689.66;5057003;28;20041;-56
2023/01/16 09:01:16;;;;;;;0.80;0.80;;;;;;;8.18;74.89;96636.03;5041698;28;20051;-56
2023/01/16 09:03:44;;;;;;;1.67;1.38;;;;;;;7.12;74.49;96468.53;5046192;28;20080;-57
2023/01/16 09:06:11;;;;;;;1.20;1.10;;;;;;;8.07;78.32;96679.16;5056085;28;20143;-57
2023/01/16 09:08:38;;;;;;;0.95;0.95;;;;;;;8.23;76.72;96671.63;5060668;28;20088;-59
2023/01/16 09:13:49;;;;;;;0.70;0.70;;;;;;;8.68;77.99;96666.19;5046880;28;20482;-59
2023/01/16 09:16:23;;;;;;;3.72;3.50;;;;;;;8.26;76.29;96564.13;5046884;28;20325;-58
2023/01/16 09:18:50;;;;;;;0.80;0.80;;;;;;;8.36;75.45;96548.91;5060303;28;20098;-58
2023/01/16 09:21:22;;;;;;;0.80;0.80;;;;;;;9.30;74.65;96632.50;5058248;28;20076;-57
2023/01/16 09:23:49;;;;;;;1.90;1.88;;;;;;;9.09;75.01;96632.97;5046201;28;20485;-56
2023/01/16 09:26:16;;;;;;;1.25;1.25;;;;;;;9.36;74.23;96631.00;5052660;28;20434;-59
2023/01/16 09:28:43;;;;;;;1.13;1.13;;;;;;;9.39;73.51;96596.31;5066716;28;20547;-59
2023/01/16 09:31:10;;;;;;;0.80;0.80;;;;;;;7.78;71.77;96384.75;5064590;28;20511;-63
2023/01/16 09:33:37;;;;;;;2.83;2.45;;;;;;;9.32;70.79;96565.81;5049533;28;20527;-62
2023/01/16 09:36:04;;;;;;;0.80;0.80;;;;;;;9.29;71.58;96548.00;5050123;28;20053;-60
2023/01/16 09:38:31;;;;;;;4.22;2.60;;;;;;;9.22;71.33;96525.78;5057036;28;20130;-60
2023/01/16 09:40:58;;;;;;;0.90;0.90;;;;;;;9.65;70.59;96588.78;5050477;28;20107;-59
2023/01/16 09:43:40;;;;;;;0.90;0.90;;;;;;;10.29;71.08;96616.06;5057518;28;20448;-59
2023/01/16 09:46:16;;;;;;;1.50;1.40;;;;;;;10.44;68.62;96615.06;5061368;28;20045;-60
2023/01/16 09:49:10;;;;;;;0.80;0.80;;;;;;;10.63;69.09;96611.28;5060875;28;20057;-61
2023/01/16 09:51:42;;;;;;;;;;;;;;;10.58;68.60;96609.66;5066403;28;20109;-61
2023/01/16 10:00:02;;;;;;;0.80;0.80;;;;;;;10.64;65.87;96569.34;5045764;28;20106;-59
2023/01/16 10:02:32;;;;;;;0.90;0.90;;;;;;;10.82;65.46;96582.56;5060963;28;20102;-60
2023/01/16 10:05:02;;;;;;;0.80;0.80;;;;;;;10.68;65.61;96567.41;5055333;28;20077;-59
2023/01/16 10:07:44;;;;;;;1.83;1.73;;;;;;;10.78;65.70;96559.56;5065183;28;20078;-59
2023/01/16 10:10:22;;;;;;;9.00;2.53;;;;;;;10.73;67.21;96549.66;5049512;28;20052;-58
2023/01/16 10:13:04;;;;;;;1.10;1.10;;;;;;;10.49;67.26;96542.72;5048118;28;20778;-64
2023/01/16 10:15:36;;;;;;;0.90;0.90;;;;;;;10.30;68.68;96544.91;5064762;28;20059;-59
2023/01/16 10:18:35;;;;;;;0.95;0.95;;;;;;;10.04;68.29;96545.78;5061065;28;20097;-64
2023/01/16 10:21:11;;;;;;;1.40;1.40;;;;;;;10.09;68.76;96545.47;5064980;28;20051;-58
2023/01/16 10:23:49;;;;;;;0.70;0.70;;;;;;;10.07;69.57;96550.59;5042982;28;20049;-58
2023/01/16 10:26:30;;;;;;;0.80;0.80;;;;;;;9.83;66.97;96467.31;5046918;28;20089;-58
2023/01/16 10:29:21;;;;;;;0.80;0.80;;;;;;;10.31;68.71;96525.13;5052682;28;20041;-58
2023/01/16 10:32:01;;;;;;;0.90;0.90;;;;;;;10.37;65.71;96531.91;5056491;28;20063;-56
2023/01/16 10:34:40;;;;;;;0.80;0.80;;;;;;;10.27;67.35;96509.69;5045910;28;20056;-56
2023/01/16 10:37:08;;;;;;;0.90;0.90;;;;;;;10.29;67.03;96529.47;5056681;28;20059;-57
2023/01/16 10:39:37;;;;;;;0.80;0.80;;;;;;;10.21;65.40;96476.00;5049148;28;20080;-61
2023/01/16 10:50:49;;;;;;;0.80;0.80;;;;;;;10.81;64.41;96506.16;5055253;28;20091;-57
2023/01/16 10:53:15;;;;;;;0.80;0.80;;;;;;;9.98;65.33;96381.31;5040149;28;20504;-56
2023/01/16 10:55:46;;;;;;;0.88;0.88;;;;;;;10.66;65.71;96439.59;5067160;28;20049;-56
2023/01/16 10:58:36;;;;;;;0.98;0.98;;;;;;;11.25;62.66;96465.28;5063784;28;20052;-57
2023/01/16 11:01:12;;;;;;;0.80;0.80;;;;;;;11.32;61.63;96481.91;5059240;28;20503;-57
2023/01/16 11:03:45;;;;;;;0.80;0.80;;;;;;;11.39;61.20;96481.97;5060340;28;20048;-56
2023/01/16 11:06:18;;;;;;;0.90;0.90;;;;;;;11.37;61.71;96478.78;5057261;28;20048;-55
2023/01/16 11:08:48;;;;;;;0.80;0.80;;;;;;;11.13;63.01;96460.84;5067037;28;20195;-54
2023/01/16 11:20:08;;;;;;;0.98;0.98;;;;;;;10.88;63.98;96439.72;5044856;28;20041;-55
2023/01/16 11:22:38;;;;;;;1.00;1.00;;;;;;;10.14;63.37;96329.28;5056471;28;20090;-58
2023/01/16 11:25:05;;;;;;;1.30;1.30;;;;;;;10.73;63.05;96429.75;5056312;28;20129;-56
2023/01/16 11:27:36;;;;;;;0.80;0.80;;;;;;;10.91;62.68;96423.13;5062890;28;20857;-56
2023/01/16 11:30:14;;;;;;;0.80;0.80;;;;;;;11.02;62.34;96417.66;5049466;28;20080;-57
2023/01/16 11:32:47;;;;;;;1.50;1.50;;;;;;;10.25;65.23;96415.16;5058075;28;20056;-57
2023/01/16 11:35:17;;;;;;;1.52;1.42;;;;;;;10.20;66.45;96421.03;5047100;28;20143;-59
2023/01/16 11:37:48;;;;;;;1.55;1.45;;;;;;;9.92;65.45;96382.84;5057555;28;20145;-57
2023/01/16 11:40:27;;;;;;;0.80;0.80;;;;;;;10.20;65.85;96393.34;5042176;28;20048;-57
2023/01/16 11:46:02;;;;;;;1.00;1.00;;;;;;;10.08;65.50;96341.09;5042841;28;20131;-60
2023/01/16 11:48:44;;;;;;;0.80;0.80;;;;;;;10.78;65.81;96407.22;5062548;28;20048;-60
2023/01/16 11:51:14;;;;;;;1.00;1.00;;;;;;;10.67;64.25;96363.63;5061123;28;20081;-62
2023/01/16 11:53:43;;;;;;;0.90;0.90;;;;;;;11.30;64.61;96401.13;5063975;28;20117;-57
2023/01/16 11:56:32;;;;;;;1.23;1.23;;;;;;;11.04;61.76;96395.88;5059254;28;20052;-60
2023/01/16 11:59:28;;;;;;;2.65;2.45;;;;;;;10.62;64.98;96400.00;5043612;28;20072;-58
2023/01/16 12:02:18;;;;;;;0.80;0.80;;;;;;;10.10;65.75;96402.38;5060646;28;20091;-60
2023/01/16 12:07:52;;;;;;;0.70;0.70;;;;;;;10.09;65.74;96285.38;5053876;28;20049;-59
2023/01/16 12:10:33;;;;;;;0.90;0.90;;;;;;;11.04;64.05;96387.56;5055640;28;20082;-60
2023/01/16 12:15:58;;;;;;;0.80;0.80;;;;;;;10.42;63.54;96329.47;5047912;28;20071;-56
2023/01/16 12:18:34;;;;;;;2.58;1.67;;;;;;;11.05;62.04;96383.63;5061993;28;20515;-60
2023/01/16 12:21:05;;;;;;;0.80;0.80;;;;;;;10.97;63.06;96376.44;5060503;28;20480;-60
2023/01/16 12:24:14;;;;;;;0.90;0.90;;;;;;;9.68;63.23;96150.31;5058563;28;20162;-56
2023/01/16 12:26:50;;;;;;;1.65;1.52;;;;;;;11.16;64.20;96367.81;5041890;28;20110;-57
2023/01/16 12:29:16;;;;;;;0.80;0.80;;;;;;;11.25;63.51;96360.72;5043704;28;20044;-56
2023/01/16 12:32:08;;;;;;;1.58;1.52;;;;;;;10.73;65.94;96373.16;5061050;28;20110;-60
2023/01/16 12:35:18;;;;;;;1.48;1.38;;;;;;;10.61;65.63;96370.72;5043243;28;20110;-60
2023/01/16 12:38:17;;;;;;;1.15;1.15;;;;;;;10.31;65.33;96325.84;5062605;28;20061;-56
2023/01/16 12:44:39;;;;;;;0.70;0.70;;;;;;;10.65;66.39;96354.91;5067565;28;20574;-59
2023/01/16 12:47:30;;;;;;;1.55;1.55;;;;;;;10.42;65.90;96318.38;5060601;28;20052;-57
2023/01/16 12:50:11;;;;;;;5.93;2.50;;;;;;;9.76;68.55;96360.16;5066983;28;20600;-59
2023/01/16 12:52:53;;;;;;;1.10;1.10;;;;;;;9.49;69.65;96364.25;5061617;28;20053;-57
2023/01/16 12:55:57;;;;;;;0.70;0.70;;;;;;;10.11;69.97;96356.94;5063243;28;20048;-60